Akin, Illinois
Current Conditions -  °F | °C
As of 11:55 AM on Thursday 23 Oct 2014 (Local Time) from KHSB Reporting Station
Clear Clear  
Wind Chill: 58°   Ceiling: Unl
Heat Index: 58°   Visibility: 10mi
Dew Point: 44°   Wind: 5mph
Humidity: 60%   Direction: 130°SE
Pressure: 30.24"   Gusts: NA
Location:  37.99°N, 88.75°W
Report Text: KHSB 231655Z AUTO 13004KT 10SM CLR 14/07 A3024 RMK AO2 T01430067
Loading
Personal Weather Stations






























Interactive Weather Map
Tropical Storm Tracking
New forecast layout! Learn more

10-Day Weather Forecast

Advertisements
Track Severe Weather on mobile